Pagina principale
METAR-TAF:

METAR-TAF

Aeroporti :

Aeroporto di Innsbruck

Innsbruck, Austria

latitudine: 47-16N, longitudine: 011-21E, altezza: 581 m

Osservazione

Il bollettino è stato emesso 27 minuti fa, alle 01:20 UTC
Vento 1 kt da direzioni variabili
Temperature -3°C
Umidità 86%
Pressione 1022 hPa
Visibilità 10 km o più
Poco nuvoloso ad un'altezza di 14000 ft

METAR: LOWI 250120Z AUTO VRB01KT 9999 FEW140 M03/M05 Q1022

Ora: 02:47 (01:47 UTC)

Previsione

Il bollettino è stato emesso 2 ore e 32 minuti fa, alle 23:15 UTC
Previsione valida dal 25 alle 00 UTC al 25 alle 24 UTC
Vento 3 kt da ovest
Visibilità 10 km o più
Poco nuvoloso ad un'altezza di 10000 ft
Nuvoloso ad un'altezza di 15000 ft

TAF: LOWI 242315Z 2500/2524 27003KT 9999 FEW100 BKN150 TX06/2515Z TNM05/2505Z

Osservazioni e previsioni meteorologiche di più di 4000 aeroporti (messaggi METAR e TAF).

Le stazioni disponibili sono rappresentate dai dischi gialli e rossi sulla carta.

Puntare il mouse per vedere il nome della stazione.

Clicca sopra per visualizzare le osservazioni e previsioni meteorologiche.

Per cambiare la mappa : fare clic sui pulsanti verdi con una croce nera per ingrandire, il pulsante verde con un trattino per diminuire, o sulla freccia verde per le mappe adiacenti.


METAR-TAF: